createdAt,value
2024-05-09T00:00:47.953Z,93.89
2024-05-09T00:03:36.232Z,93.51
2024-05-09T00:06:05.228Z,93.81
2024-05-09T00:08:33.850Z,93.76
2024-05-09T00:11:02.146Z,93.71
2024-05-09T00:13:30.503Z,93.47
2024-05-09T00:15:59.266Z,92.60
2024-05-09T00:18:27.557Z,93.51
2024-05-09T00:20:55.994Z,93.15
2024-05-09T00:23:24.238Z,93.49
2024-05-09T00:25:52.416Z,92.93
2024-05-09T00:28:20.924Z,91.96
2024-05-09T00:30:48.993Z,91.72
2024-05-09T00:33:17.395Z,91.76
2024-05-09T00:35:45.880Z,91.59
2024-05-09T00:38:14.248Z,91.44
2024-05-09T00:40:43.639Z,91.44
2024-05-09T00:43:13.396Z,92.01
2024-05-09T00:45:43.524Z,92.33
2024-05-09T00:48:14.976Z,91.63
2024-05-09T00:50:46.920Z,91.15
2024-05-09T00:53:17.236Z,91.29
2024-05-09T00:55:47.504Z,91.15
2024-05-09T00:58:22.692Z,90.71
2024-05-09T01:00:51.232Z,90.19
2024-05-09T01:03:20.202Z,89.37
2024-05-09T01:05:48.525Z,90.50
2024-05-09T01:08:16.886Z,90.28
2024-05-09T01:10:47.210Z,90.32
2024-05-09T01:13:16.688Z,90.46
2024-05-09T01:15:44.941Z,91.58
2024-05-09T01:18:14.301Z,91.89
2024-05-09T01:20:44.861Z,92.32
2024-05-09T01:23:15.847Z,92.25
2024-05-09T01:25:46.398Z,92.92
2024-05-09T01:28:15.996Z,92.80
2024-05-09T01:30:44.297Z,92.47
2024-05-09T01:33:13.332Z,92.54
2024-05-09T01:35:42.992Z,91.97
2024-05-09T01:38:17.099Z,90.89
2024-05-09T01:40:46.286Z,91.42
2024-05-09T01:43:15.902Z,91.54
2024-05-09T01:45:44.112Z,91.85
2024-05-09T01:48:12.508Z,92.03
2024-05-09T01:50:42.739Z,91.85
2024-05-09T01:53:14.496Z,92.36
2024-05-09T01:55:44.298Z,91.76
2024-05-09T01:58:13.101Z,92.02
2024-05-09T02:00:42.946Z,91.92
2024-05-09T02:03:15.845Z,91.83
2024-05-09T02:05:49.347Z,91.32
2024-05-09T02:08:19.794Z,91.43
2024-05-09T02:10:49.842Z,91.61
2024-05-09T02:13:18.723Z,91.53
2024-05-09T02:15:47.019Z,91.95
2024-05-09T02:18:15.366Z,92.33
2024-05-09T02:20:44.127Z,92.71
2024-05-09T02:23:13.502Z,92.79
2024-05-09T02:25:42.237Z,92.63
2024-05-09T02:28:10.448Z,92.04
2024-05-09T02:30:41.356Z,91.74
2024-05-09T02:33:12.828Z,91.45
2024-05-09T02:35:44.026Z,91.49
2024-05-09T02:38:13.354Z,91.20
2024-05-09T02:40:41.807Z,92.33
2024-05-09T02:43:12.643Z,92.74
2024-05-09T02:45:41.738Z,93.31
2024-05-09T02:48:11.526Z,93.16
2024-05-09T02:50:40.919Z,92.61
2024-05-09T02:53:12.132Z,92.02
2024-05-09T02:55:41.510Z,91.80
2024-05-09T02:58:10.532Z,92.31
2024-05-09T03:00:41.805Z,92.93
2024-05-09T03:03:14.043Z,92.91
2024-05-09T03:05:45.845Z,93.16
2024-05-09T03:08:14.760Z,92.83
2024-05-09T03:10:43.195Z,92.54
2024-05-09T03:13:14.914Z,92.84
2024-05-09T03:15:44.490Z,92.70
2024-05-09T03:18:13.338Z,93.26
2024-05-09T03:20:44.028Z,92.98
2024-05-09T03:23:12.906Z,92.33
2024-05-09T03:25:41.367Z,92.45
2024-05-09T03:28:09.551Z,92.92
2024-05-09T03:30:41.982Z,92.75
2024-05-09T03:33:17.428Z,93.15
2024-05-09T03:35:47.705Z,94.17
2024-05-09T03:38:16.430Z,93.64
2024-05-09T03:40:49.514Z,93.05
2024-05-09T03:43:19.250Z,92.54
2024-05-09T03:45:50.256Z,93.04
2024-05-09T03:48:18.881Z,92.95
2024-05-09T03:50:47.513Z,92.64
2024-05-09T03:53:15.827Z,92.34
2024-05-09T03:55:44.147Z,92.42
2024-05-09T03:58:14.166Z,92.28
2024-05-09T04:00:43.088Z,92.00
2024-05-09T04:03:12.845Z,91.71
2024-05-09T04:05:43.957Z,91.56
2024-05-09T04:08:15.653Z,93.12
2024-05-09T04:10:45.232Z,92.91
2024-05-09T04:13:13.509Z,92.21
2024-05-09T04:15:41.750Z,92.19
2024-05-09T04:18:10.080Z,93.29
2024-05-09T04:20:40.591Z,92.66
2024-05-09T04:23:14.612Z,91.82
2024-05-09T04:25:45.325Z,91.91
2024-05-09T04:28:14.520Z,93.02
2024-05-09T04:30:43.447Z,93.63
2024-05-09T04:33:13.828Z,93.31
2024-05-09T04:35:43.784Z,93.68
2024-05-09T04:38:13.978Z,90.75
2024-05-09T04:40:43.135Z,91.12
2024-05-09T04:43:16.032Z,91.84
2024-05-09T04:45:44.512Z,89.67
2024-05-09T04:48:13.110Z,90.46
2024-05-09T04:50:41.786Z,89.88
2024-05-09T04:53:14.816Z,89.47
2024-05-09T04:55:43.233Z,88.90
2024-05-09T04:58:11.750Z,88.87
2024-05-09T05:00:41.392Z,89.64
2024-05-09T05:03:14.233Z,88.86
2024-05-09T05:05:46.183Z,89.03
2024-05-09T05:08:16.454Z,89.14
2024-05-09T05:10:47.157Z,88.58
2024-05-09T05:13:20.782Z,88.05
2024-05-09T05:15:53.492Z,88.36
2024-05-09T05:18:22.586Z,87.45
2024-05-09T05:20:51.454Z,87.28
2024-05-09T05:23:20.828Z,87.57
2024-05-09T05:25:52.103Z,87.15
2024-05-09T05:28:20.615Z,86.60
2024-05-09T05:30:48.789Z,86.76
2024-05-09T05:33:20.042Z,87.53
2024-05-09T05:35:48.636Z,87.20
2024-05-09T05:38:16.837Z,85.83
2024-05-09T05:40:44.979Z,84.41
2024-05-09T05:43:17.921Z,84.16
2024-05-09T05:45:46.787Z,83.94
2024-05-09T05:48:16.701Z,82.38
2024-05-09T05:50:45.626Z,82.73
2024-05-09T05:53:14.257Z,83.64
2024-05-09T05:55:42.590Z,84.04
2024-05-09T05:58:14.651Z,83.62
2024-05-09T06:00:43.935Z,83.50
2024-05-09T06:03:13.538Z,82.50
2024-05-09T06:05:48.544Z,82.04
2024-05-09T06:08:16.860Z,81.62
2024-05-09T06:10:45.382Z,81.76
2024-05-09T06:13:14.463Z,81.82
2024-05-09T06:15:43.604Z,82.71
2024-05-09T06:18:13.853Z,82.88
2024-05-09T06:20:43.810Z,83.22
2024-05-09T06:23:14.599Z,83.18
2024-05-09T06:25:43.742Z,84.01
2024-05-09T06:28:11.982Z,83.79
2024-05-09T06:30:42.210Z,85.70
2024-05-09T06:33:13.896Z,85.07
2024-05-09T06:35:46.585Z,84.92
2024-05-09T06:38:14.983Z,85.30
2024-05-09T06:40:44.457Z,83.71
2024-05-09T06:43:15.034Z,82.30
2024-05-09T06:45:45.930Z,82.27
2024-05-09T06:48:14.605Z,82.40
2024-05-09T06:50:43.017Z,81.46
2024-05-09T06:53:14.793Z,81.52
2024-05-09T06:55:43.162Z,81.23
2024-05-09T06:58:11.471Z,81.47
2024-05-09T07:00:41.519Z,81.66
2024-05-09T07:03:13.515Z,81.04
2024-05-09T07:05:44.598Z,80.74
2024-05-09T07:08:14.576Z,81.34
2024-05-09T07:10:42.903Z,81.80
2024-05-09T07:13:12.658Z,82.64
2024-05-09T07:15:41.894Z,82.20
2024-05-09T07:18:17.282Z,82.34
2024-05-09T07:20:48.516Z,81.86
2024-05-09T07:23:18.050Z,80.47
2024-05-09T07:25:46.637Z,79.13
2024-05-09T07:28:16.844Z,77.79
2024-05-09T07:30:45.899Z,78.08
2024-05-09T07:33:19.545Z,77.05
2024-05-09T07:35:48.621Z,78.07
2024-05-09T07:38:16.868Z,77.81
2024-05-09T07:40:45.401Z,78.48
2024-05-09T07:43:16.665Z,78.53
2024-05-09T07:45:52.276Z,77.81
2024-05-09T07:52:38.952Z,76.03
2024-05-09T07:53:48.009Z,76.88
2024-05-09T07:56:22.407Z,75.56
2024-05-09T07:58:56.053Z,76.40
2024-05-09T08:01:26.372Z,76.03
2024-05-09T08:03:55.535Z,75.72
2024-05-09T08:06:24.163Z,74.81
2024-05-09T08:08:52.610Z,75.34
2024-05-09T08:11:20.929Z,73.90
2024-05-09T08:13:49.099Z,74.15
2024-05-09T08:16:17.476Z,73.86
2024-05-09T08:18:45.709Z,73.33
2024-05-09T08:21:14.028Z,73.24
2024-05-09T08:23:42.199Z,73.58
2024-05-09T08:26:10.433Z,73.73
2024-05-09T08:28:38.542Z,73.63
2024-05-09T08:31:07.334Z,74.22
2024-05-09T08:33:36.049Z,75.14
2024-05-09T08:36:04.730Z,75.36
2024-05-09T08:38:32.893Z,75.15
2024-05-09T08:41:04.101Z,75.98
2024-05-09T08:43:32.434Z,74.73
2024-05-09T08:46:04.434Z,74.91
2024-05-09T08:48:36.491Z,75.53
2024-05-09T08:51:06.241Z,75.23
2024-05-09T08:53:34.518Z,74.99
2024-05-09T08:56:02.821Z,74.78
2024-05-09T08:58:34.943Z,75.90
2024-05-09T09:01:07.030Z,75.27
2024-05-09T09:03:36.839Z,74.81
2024-05-09T09:06:18.106Z,74.95
2024-05-09T09:08:47.415Z,74.54
2024-05-09T09:11:15.611Z,75.26
2024-05-09T09:13:43.864Z,75.65
2024-05-09T09:16:12.732Z,76.41
2024-05-09T09:18:44.769Z,77.43
2024-05-09T09:21:13.102Z,76.85
2024-05-09T09:23:41.571Z,76.69
2024-05-09T09:26:09.717Z,77.26
2024-05-09T09:28:38.126Z,77.24
2024-05-09T09:31:06.428Z,77.46
2024-05-09T09:33:35.602Z,76.73
2024-05-09T09:36:06.282Z,75.66
2024-05-09T09:38:40.582Z,75.25
2024-05-09T09:41:10.617Z,75.58
2024-05-09T09:43:42.573Z,77.02
2024-05-09T09:46:12.981Z,76.23
2024-05-09T09:48:42.402Z,75.64
2024-05-09T09:51:11.481Z,75.80
2024-05-09T09:53:40.769Z,77.02
2024-05-09T09:56:10.421Z,76.48
2024-05-09T09:58:40.258Z,75.08
2024-05-09T10:01:08.802Z,76.01
2024-05-09T10:03:37.691Z,76.23
2024-05-09T10:06:07.669Z,77.43
2024-05-09T10:08:36.608Z,77.04
2024-05-09T10:11:05.819Z,78.80
2024-05-09T10:13:34.906Z,77.16
2024-05-09T10:16:10.817Z,76.31
2024-05-09T10:18:40.765Z,75.75
2024-05-09T10:21:20.098Z,75.62
2024-05-09T10:24:02.019Z,75.03
2024-05-09T10:26:38.305Z,74.70
2024-05-09T10:29:16.077Z,74.49
2024-05-09T10:31:46.261Z,73.69
2024-05-09T10:34:23.106Z,73.22
2024-05-09T10:36:53.719Z,74.47
2024-05-09T10:39:22.177Z,75.74
2024-05-09T10:41:50.435Z,74.72
2024-05-09T10:44:18.746Z,76.02
2024-05-09T10:46:47.286Z,74.45
2024-05-09T10:49:15.824Z,74.36
2024-05-09T10:51:45.040Z,72.24
2024-05-09T10:54:13.372Z,72.80
2024-05-09T10:56:42.067Z,70.91
2024-05-09T10:59:12.826Z,71.10
2024-05-09T11:01:41.407Z,71.49
2024-05-09T11:04:10.157Z,72.40
2024-05-09T11:06:39.384Z,71.10
2024-05-09T11:09:07.707Z,71.73
2024-05-09T11:11:36.045Z,71.85
2024-05-09T11:14:15.073Z,71.58
2024-05-09T11:16:43.283Z,71.78
2024-05-09T11:19:14.898Z,71.68
2024-05-09T11:21:43.277Z,70.62
2024-05-09T11:24:12.066Z,70.24
2024-05-09T11:26:40.191Z,70.68
2024-05-09T11:29:08.358Z,70.35
2024-05-09T11:31:46.945Z,70.55
2024-05-09T11:34:15.537Z,70.13
2024-05-09T11:36:43.837Z,70.72
2024-05-09T11:39:14.471Z,69.70
2024-05-09T11:41:42.775Z,69.39
2024-05-09T11:44:11.403Z,70.44
2024-05-09T11:46:39.663Z,69.26
2024-05-09T11:49:09.512Z,68.55
2024-05-09T11:51:37.867Z,68.79
2024-05-09T11:54:06.056Z,69.93
2024-05-09T11:56:34.478Z,69.56
2024-05-09T11:59:03.398Z,69.99
2024-05-09T12:01:31.838Z,70.01
2024-05-09T12:04:00.488Z,69.82
2024-05-09T12:06:29.589Z,70.98
2024-05-09T12:08:57.981Z,69.50
2024-05-09T12:11:26.139Z,70.11
2024-05-09T12:13:54.399Z,68.69
2024-05-09T12:16:22.948Z,67.87
2024-05-09T12:18:51.278Z,67.21
2024-05-09T12:21:19.589Z,67.26
2024-05-09T12:23:47.861Z,68.26
2024-05-09T12:26:16.528Z,68.78
2024-05-09T12:28:44.700Z,69.64
2024-05-09T12:31:13.035Z,70.84
2024-05-09T12:33:41.219Z,68.17
2024-05-09T12:36:09.450Z,67.68
2024-05-09T12:38:37.628Z,67.67
2024-05-09T12:41:05.855Z,68.10
2024-05-09T12:43:34.074Z,66.53
2024-05-09T12:46:03.407Z,65.50
2024-05-09T12:48:31.961Z,65.57
2024-05-09T12:51:00.228Z,66.09
2024-05-09T12:53:28.451Z,65.21
2024-05-09T12:56:00.223Z,64.01
2024-05-09T12:58:31.028Z,64.68
2024-05-09T13:00:59.279Z,65.02
2024-05-09T13:03:27.635Z,64.29
2024-05-09T13:05:55.828Z,63.69
2024-05-09T13:08:24.269Z,65.01
2024-05-09T13:10:52.509Z,64.41
2024-05-09T13:13:21.043Z,62.75
2024-05-09T13:15:49.422Z,61.81
2024-05-09T13:18:17.874Z,63.41
2024-05-09T13:20:46.088Z,61.74
2024-05-09T13:23:14.174Z,60.97
2024-05-09T13:25:42.286Z,61.29
2024-05-09T13:28:10.654Z,58.99
2024-05-09T13:30:41.613Z,56.91
2024-05-09T13:33:12.410Z,60.22
2024-05-09T13:35:47.096Z,59.53
2024-05-09T13:38:20.031Z,58.41
2024-05-09T13:40:49.358Z,58.95
2024-05-09T13:43:18.718Z,59.21
2024-05-09T13:45:47.756Z,60.78
2024-05-09T13:48:16.157Z,60.10
2024-05-09T13:50:44.387Z,59.08
2024-05-09T13:53:12.487Z,58.62
2024-05-09T13:55:41.019Z,59.98
2024-05-09T13:58:09.743Z,59.50
2024-05-09T14:00:46.054Z,60.14
2024-05-09T14:03:19.832Z,59.81
2024-05-09T14:05:51.147Z,59.28
2024-05-09T14:08:21.746Z,57.96
2024-05-09T14:10:50.675Z,58.75
2024-05-09T14:13:20.035Z,59.55
2024-05-09T14:15:48.762Z,58.59
2024-05-09T14:18:18.125Z,58.79
2024-05-09T14:20:46.219Z,60.61
2024-05-09T14:23:15.003Z,60.65
2024-05-09T14:25:44.163Z,60.62
2024-05-09T14:28:13.695Z,60.36
2024-05-09T14:30:42.963Z,60.79
2024-05-09T14:33:11.986Z,60.80
2024-05-09T14:35:40.254Z,60.15
2024-05-09T14:38:09.723Z,60.45
2024-05-09T14:40:42.468Z,61.06
2024-05-09T14:43:13.970Z,61.65
2024-05-09T14:45:43.713Z,62.65
2024-05-09T14:48:15.048Z,62.27
2024-05-09T14:50:43.752Z,62.00
2024-05-09T14:53:13.743Z,63.37
2024-05-09T14:55:43.577Z,64.48
2024-05-09T14:58:13.324Z,62.85
2024-05-09T15:00:46.586Z,62.29
2024-05-09T15:03:22.493Z,62.46
2024-05-09T15:05:52.263Z,62.85
2024-05-09T15:08:20.848Z,62.99
2024-05-09T15:10:52.251Z,63.48
2024-05-09T15:13:21.279Z,62.67
2024-05-09T15:15:51.095Z,62.47
2024-05-09T15:18:19.716Z,61.65
2024-05-09T15:20:48.311Z,61.96
2024-05-09T15:23:16.719Z,62.58
2024-05-09T15:25:45.173Z,61.64
2024-05-09T15:28:13.599Z,61.39
2024-05-09T15:30:45.237Z,61.45
2024-05-09T15:33:15.117Z,62.05
2024-05-09T15:35:46.946Z,62.12
2024-05-09T15:38:16.123Z,62.31
2024-05-09T15:40:44.364Z,63.02
2024-05-09T15:43:12.744Z,63.49
2024-05-09T15:45:41.647Z,64.52
2024-05-09T15:48:10.884Z,64.52
2024-05-09T15:50:41.816Z,65.05
2024-05-09T15:53:13.304Z,64.32
2024-05-09T15:55:43.232Z,65.43
2024-05-09T15:58:12.513Z,65.41
2024-05-09T16:00:44.751Z,67.52
2024-05-09T16:03:15.180Z,67.96
2024-05-09T16:05:45.531Z,68.49
2024-05-09T16:08:15.748Z,68.62
2024-05-09T16:10:45.900Z,68.38
2024-05-09T16:13:16.173Z,68.42
2024-05-09T16:15:45.160Z,68.35
2024-05-09T16:18:13.604Z,68.20
2024-05-09T16:20:51.038Z,68.63
2024-05-09T16:23:19.223Z,68.51
2024-05-09T16:25:47.809Z,70.19
2024-05-09T16:28:16.880Z,70.60
2024-05-09T16:30:45.154Z,69.63
2024-05-09T16:33:13.603Z,68.35
2024-05-09T16:35:41.926Z,69.45
2024-05-09T16:38:10.295Z,69.01
2024-05-09T16:40:40.857Z,67.66
2024-05-09T16:43:12.148Z,66.56
2024-05-09T16:45:45.092Z,66.61
2024-05-09T16:48:14.038Z,67.71
2024-05-09T16:50:42.825Z,67.66
2024-05-09T16:53:11.200Z,67.80
2024-05-09T16:55:39.549Z,67.69
2024-05-09T16:58:16.244Z,67.71
2024-05-09T17:00:44.746Z,69.20
2024-05-09T17:03:15.272Z,70.30
2024-05-09T17:05:46.766Z,70.55
2024-05-09T17:08:17.896Z,70.35
2024-05-09T17:10:48.643Z,69.64
2024-05-09T17:13:18.523Z,68.89
2024-05-09T17:15:47.337Z,68.64
2024-05-09T17:18:16.397Z,67.81
2024-05-09T17:20:44.555Z,68.88
2024-05-09T17:23:14.052Z,69.04
2024-05-09T17:25:43.552Z,70.09
2024-05-09T17:28:12.464Z,71.37
2024-05-09T17:30:42.297Z,69.98
2024-05-09T17:33:12.895Z,73.71
2024-05-09T17:35:41.873Z,73.81
2024-05-09T17:38:10.242Z,74.03
2024-05-09T17:40:39.340Z,73.94
2024-05-09T17:43:09.990Z,73.21
2024-05-09T17:45:41.075Z,72.65
2024-05-09T17:48:11.934Z,75.12
2024-05-09T17:50:42.007Z,74.02
2024-05-09T17:53:10.859Z,72.59
2024-05-09T17:55:40.436Z,75.99
2024-05-09T17:58:09.787Z,75.78
2024-05-09T18:00:41.158Z,74.83
2024-05-09T18:03:11.918Z,76.21
2024-05-09T18:05:43.434Z,76.86
2024-05-09T18:08:13.236Z,79.42
2024-05-09T18:10:42.172Z,79.00
2024-05-09T18:13:12.282Z,80.99
2024-05-09T18:15:42.002Z,81.52
2024-05-09T18:18:11.932Z,81.15
2024-05-09T18:20:44.414Z,80.83
2024-05-09T18:23:16.667Z,81.68
2024-05-09T18:25:47.452Z,82.69
2024-05-09T18:28:17.055Z,82.80
2024-05-09T18:30:46.417Z,82.23
2024-05-09T18:33:16.067Z,83.42
2024-05-09T18:35:45.404Z,83.49
2024-05-09T18:38:14.032Z,84.75
2024-05-09T18:40:44.751Z,84.42
2024-05-09T18:43:14.993Z,83.87
2024-05-09T18:45:43.529Z,85.54
2024-05-09T18:48:13.207Z,85.27
2024-05-09T18:50:41.884Z,86.30
2024-05-09T18:53:12.403Z,84.47
2024-05-09T18:55:42.439Z,84.84
2024-05-09T18:58:10.808Z,84.95
2024-05-09T19:00:41.679Z,85.44
2024-05-09T19:03:14.030Z,85.33
2024-05-09T19:05:45.381Z,86.52
2024-05-09T19:08:15.780Z,86.62
2024-05-09T19:10:45.625Z,86.06
2024-05-09T19:13:14.965Z,84.73
2024-05-09T19:15:44.158Z,83.60
2024-05-09T19:18:14.037Z,84.02
2024-05-09T19:20:44.000Z,84.01
2024-05-09T19:23:12.616Z,84.40
2024-05-09T19:25:40.870Z,84.03
2024-05-09T19:28:09.441Z,83.48
2024-05-09T19:30:41.276Z,82.75
2024-05-09T19:33:14.932Z,82.14
2024-05-09T19:35:43.811Z,84.13
2024-05-09T19:38:12.837Z,85.57
2024-05-09T19:40:41.270Z,86.20
2024-05-09T19:43:09.812Z,86.96
2024-05-09T19:45:38.969Z,87.00
2024-05-09T19:48:07.989Z,86.76
2024-05-09T19:50:42.165Z,88.14
2024-05-09T19:53:14.686Z,87.49
2024-05-09T19:55:43.674Z,87.23
2024-05-09T19:58:12.808Z,87.44
2024-05-09T20:00:43.441Z,87.41
2024-05-09T20:03:15.090Z,88.81
2024-05-09T20:05:46.753Z,88.31
2024-05-09T20:08:16.351Z,88.22
2024-05-09T20:10:44.915Z,87.97
2024-05-09T20:13:13.768Z,86.65
2024-05-09T20:15:42.412Z,87.29
2024-05-09T20:18:10.952Z,88.26
2024-05-09T20:20:42.576Z,88.43
2024-05-09T20:23:13.149Z,89.93
2024-05-09T20:25:42.140Z,89.13
2024-05-09T20:28:10.860Z,90.01
2024-05-09T20:30:39.639Z,90.35
2024-05-09T20:33:09.255Z,89.17
2024-05-09T20:35:38.317Z,88.31
2024-05-09T20:38:06.510Z,88.79
2024-05-09T20:40:37.900Z,88.31
2024-05-09T20:43:09.675Z,89.00
2024-05-09T20:45:39.080Z,88.91
2024-05-09T20:48:09.223Z,89.38
2024-05-09T20:50:41.048Z,88.09
2024-05-09T20:53:13.194Z,88.66
2024-05-09T20:55:45.798Z,88.53
2024-05-09T20:58:14.576Z,89.31
2024-05-09T21:00:45.452Z,89.76
2024-05-09T21:03:16.947Z,89.50
2024-05-09T21:05:47.631Z,90.22
2024-05-09T21:08:16.491Z,90.90
2024-05-09T21:10:44.926Z,90.24
2024-05-09T21:13:13.319Z,88.58
2024-05-09T21:15:41.756Z,87.24
2024-05-09T21:18:10.258Z,87.48
2024-05-09T21:20:38.558Z,89.96
2024-05-09T21:23:06.778Z,89.63
2024-05-09T21:25:35.111Z,89.17
2024-05-09T21:28:03.817Z,88.62
2024-05-09T21:30:40.760Z,89.40
2024-05-09T21:33:13.575Z,89.96
2024-05-09T21:35:44.439Z,90.13
2024-05-09T21:38:14.533Z,90.73
2024-05-09T21:40:44.349Z,90.82
2024-05-09T21:43:13.112Z,89.38
2024-05-09T21:45:41.547Z,89.89
2024-05-09T21:48:12.082Z,90.32
2024-05-09T21:50:42.273Z,89.87
2024-05-09T21:53:12.405Z,89.19
2024-05-09T21:55:44.792Z,90.29
2024-05-09T21:58:16.446Z,91.29
2024-05-09T22:00:46.360Z,90.37
2024-05-09T22:03:15.183Z,90.66
2024-05-09T22:05:45.005Z,90.96
2024-05-09T22:08:13.846Z,91.03
2024-05-09T22:10:42.752Z,90.56
2024-05-09T22:13:11.230Z,89.30
2024-05-09T22:15:40.603Z,89.24
2024-05-09T22:18:10.850Z,88.68
2024-05-09T22:20:45.240Z,89.97
2024-05-09T22:23:15.504Z,90.71
2024-05-09T22:25:43.994Z,90.99
2024-05-09T22:28:14.905Z,90.38
2024-05-09T22:30:45.565Z,90.73
2024-05-09T22:33:15.045Z,91.18
2024-05-09T22:35:43.384Z,90.37
2024-05-09T22:38:11.676Z,90.30
2024-05-09T22:40:47.345Z,90.99
2024-05-09T22:43:22.629Z,92.43
2024-05-09T22:45:54.880Z,91.26
2024-05-09T22:48:24.807Z,91.32
2024-05-09T22:50:54.202Z,92.22
2024-05-09T22:53:24.790Z,91.71
2024-05-09T22:55:54.078Z,91.66
2024-05-09T22:58:23.567Z,91.33
2024-05-09T23:00:52.444Z,91.94
2024-05-09T23:03:22.635Z,89.99
2024-05-09T23:05:52.984Z,90.51
2024-05-09T23:08:21.364Z,91.42
2024-05-09T23:10:50.063Z,92.54
2024-05-09T23:13:18.628Z,91.10
2024-05-09T23:15:47.185Z,91.26
2024-05-09T23:18:15.542Z,91.83
2024-05-09T23:20:43.853Z,91.30
2024-05-09T23:23:12.522Z,90.93
2024-05-09T23:25:41.540Z,91.67
2024-05-09T23:28:11.024Z,92.95
2024-05-09T23:30:41.004Z,92.07
2024-05-09T23:33:14.755Z,91.94
2024-05-09T23:35:44.422Z,91.58
2024-05-09T23:38:13.713Z,91.73
2024-05-09T23:40:43.127Z,92.14
2024-05-09T23:43:14.290Z,92.39
2024-05-09T23:45:43.323Z,92.24
2024-05-09T23:48:11.944Z,91.82
2024-05-09T23:50:41.160Z,90.39
2024-05-09T23:53:10.732Z,90.49
2024-05-09T23:55:39.939Z,91.85
2024-05-09T23:58:09.891Z,91.79
